Time;durP1;ratioP1;P1;durP2;ratioP2;P2;SDS_P1;SDS_P2;PMS_P1;PMS_P2;Temp;Humidity;BMP_temperature;BMP_pressure;BME280_temperature;BME280_humidity;BME280_pressure;Samples;Min_cycle;Max_cycle;Signal;HPM_P1;HPM_P2
2021/06/25 00:04:07;;;;;;;3.80;2.37;;;;;;;16.46;94.99;98840.08;4163132;83;21617;-79
2021/06/25 00:10:33;;;;;;;2.72;2.22;;;;;;;16.49;95.15;98845.53;4065610;83;21053;-78
2021/06/25 00:16:44;;;;;;;5.80;2.22;;;;;;;16.46;94.37;98828.41;4175584;83;20990;-78
2021/06/25 00:23:06;;;;;;;4.62;2.17;;;;;;;16.49;94.08;98846.16;4171603;83;21029;-78
2021/06/25 00:29:28;;;;;;;7.83;1.87;;;;;;;16.55;93.68;98857.67;4168299;83;21071;-78
2021/06/25 00:35:36;;;;;;;6.75;2.00;;;;;;;16.66;93.56;98877.64;4161026;84;21074;-79
2021/06/25 00:41:58;;;;;;;5.17;2.08;;;;;;;16.80;93.21;98871.90;4149703;84;20973;-78
2021/06/25 00:48:14;;;;;;;5.62;2.22;;;;;;;16.74;92.90;98876.34;4157957;83;21151;-79
2021/06/25 00:54:49;;;;;;;;;;;;;;;;;;;;;
2021/06/25 01:07:15;;;;;;;6.05;2.55;;;;;;;16.61;92.67;98893.34;4171338;83;22004;-79
2021/06/25 01:13:26;;;;;;;7.05;2.30;;;;;;;16.56;92.55;98884.12;4201421;83;21044;-79
2021/06/25 01:19:45;;;;;;;4.55;2.40;;;;;;;16.44;92.34;98886.09;4189974;83;20981;-79
2021/06/25 01:26:00;;;;;;;4.15;2.30;;;;;;;16.39;92.81;98896.19;4185206;83;21029;-79
2021/06/25 01:32:13;;;;;;;8.40;3.00;;;;;;;16.44;92.70;98869.52;4200668;83;21029;-79
2021/06/25 01:38:47;;;;;;;8.07;3.37;;;;;;;16.46;92.72;98869.09;4169048;84;21076;-79
2021/06/25 01:45:29;;;;;;;;;;;;;;;;;;;;;
2021/06/25 01:51:17;;;;;;;6.03;2.45;;;;;;;16.48;93.26;98860.56;4124011;84;21953;-81
2021/06/25 01:57:46;;;;;;;8.95;2.58;;;;;;;16.59;92.71;98877.77;4158309;84;21145;-78
2021/06/25 02:03:48;;;;;;;7.90;3.27;;;;;;;16.58;92.92;98930.10;4212003;82;21594;-79
2021/06/25 02:09:50;;;;;;;5.90;3.15;;;;;;;16.47;92.45;98941.90;4116143;85;21370;-79
2021/06/25 02:15:52;;;;;;;4.87;2.80;;;;;;;16.54;92.93;98930.73;4172992;84;21074;-79
2021/06/25 02:21:54;;;;;;;9.18;4.22;;;;;;;16.49;92.45;98892.51;4187595;84;21076;-79
2021/06/25 02:27:56;;;;;;;6.08;3.42;;;;;;;16.34;92.57;98882.04;4177701;84;21065;-79
2021/06/25 02:33:57;;;;;;;10.30;4.03;;;;;;;16.37;93.18;98885.35;4189447;84;21688;-79
2021/06/25 02:39:58;;;;;;;9.73;3.17;;;;;;;16.41;93.17;98906.83;4181740;83;21095;-79
2021/06/25 02:46:00;;;;;;;6.17;3.87;;;;;;;16.39;94.95;98924.41;4189635;83;21483;-79
2021/06/25 02:52:02;;;;;;;7.15;3.90;;;;;;;16.34;94.49;98890.33;4193927;84;21100;-78
2021/06/25 02:58:04;;;;;;;9.03;4.17;;;;;;;16.41;95.04;98873.05;4167114;84;21477;-78
2021/06/25 03:04:07;;;;;;;6.42;3.92;;;;;;;16.44;94.86;99042.75;4167827;84;22325;-80
2021/06/25 03:10:10;;;;;;;11.83;3.90;;;;;;;16.52;94.80;98991.77;4157133;83;22129;-79
2021/06/25 03:16:12;;;;;;;8.43;4.30;;;;;;;16.56;94.85;98857.09;4128530;85;22165;-78
2021/06/25 03:22:13;;;;;;;6.75;3.70;;;;;;;16.66;94.97;98840.95;4116527;84;21056;-80
2021/06/25 03:28:14;;;;;;;8.23;3.37;;;;;;;16.81;94.99;98839.52;4142287;84;21122;-79
2021/06/25 03:34:15;;;;;;;5.95;4.25;;;;;;;16.84;94.39;98848.34;4111371;85;21089;-79
2021/06/25 03:40:17;;;;;;;3.83;2.92;;;;;;;16.82;94.23;98844.63;4184956;84;21484;-79
2021/06/25 03:46:22;;;;;;;7.50;3.40;;;;;;;16.84;94.68;98835.32;4184342;83;21055;-80
2021/06/25 03:52:25;;;;;;;7.33;3.27;;;;;;;16.82;95.01;98848.77;4183893;83;21059;-80
2021/06/25 03:58:28;;;;;;;6.78;4.12;;;;;;;16.96;94.77;98857.45;4189527;83;21033;-79
2021/06/25 04:04:32;;;;;;;5.97;3.47;;;;;;;16.97;94.78;98845.18;4184431;83;21536;-79
2021/06/25 04:10:37;;;;;;;8.00;4.08;;;;;;;17.09;94.83;98837.06;4197444;83;21033;-79
2021/06/25 04:17:00;;;;;;;;;;;;;;;;;;;;;
2021/06/25 04:23:02;;;;;;;7.60;3.45;;;;;;;17.29;94.76;98815.58;4173702;83;21053;-81
2021/06/25 04:29:04;;;;;;;8.50;3.98;;;;;;;17.36;94.55;98802.98;4198180;83;21044;-78
2021/06/25 04:35:11;;;;;;;9.30;3.40;;;;;;;17.34;94.58;98806.17;4152880;83;21054;-79
2021/06/25 04:41:18;;;;;;;8.23;3.60;;;;;;;17.36;94.62;98802.98;4154038;84;20994;-81
2021/06/25 04:47:23;;;;;;;10.10;3.45;;;;;;;17.40;94.61;98796.17;4211105;83;21128;-79
2021/06/25 04:53:24;;;;;;;8.43;3.17;;;;;;;17.58;95.25;98780.05;4193356;83;21432;-79
2021/06/25 04:59:32;;;;;;;9.30;4.47;;;;;;;17.69;94.65;98794.45;4209485;83;21060;-78
2021/06/25 05:05:40;;;;;;;16.32;4.22;;;;;;;17.72;94.85;98788.65;4161909;84;21014;-79
2021/06/25 05:11:42;;;;;;;8.03;4.40;;;;;;;17.85;94.96;98783.44;4130888;84;21055;-81
2021/06/25 05:17:43;;;;;;;10.72;3.90;;;;;;;17.98;94.72;98792.62;4206449;83;21048;-79
2021/06/25 05:23:51;;;;;;;9.40;3.67;;;;;;;18.11;94.42;98794.13;4177136;83;21071;-78
2021/06/25 05:29:54;;;;;;;7.55;3.92;;;;;;;18.24;94.31;98785.34;4173703;83;22132;-79
2021/06/25 05:36:00;;;;;;;5.80;3.47;;;;;;;18.40;94.11;98782.63;4174099;83;21620;-78
2021/06/25 05:42:05;;;;;;;12.18;3.72;;;;;;;18.50;94.19;98775.44;4174716;83;21117;-79
2021/06/25 05:48:07;;;;;;;11.90;3.42;;;;;;;18.74;93.92;98778.19;4176253;83;21574;-78
2021/06/25 05:54:09;;;;;;;9.35;3.17;;;;;;;18.91;93.89;98777.58;4174240;83;21084;-78
2021/06/25 06:00:17;;;;;;;7.62;3.05;;;;;;;19.09;93.65;98774.34;4177470;83;21182;-81
2021/06/25 06:06:18;;;;;;;6.37;2.75;;;;;;;19.29;93.24;98779.97;4176580;83;21079;-79
2021/06/25 06:12:23;;;;;;;6.35;2.58;;;;;;;19.44;93.05;98776.17;4183871;83;21056;-82
2021/06/25 06:18:31;;;;;;;8.68;2.90;;;;;;;19.61;92.91;98770.12;4182291;83;21520;-79
2021/06/25 06:31:10;;;;;;;9.00;2.77;;;;;;;20.08;93.06;98794.72;4189158;83;21012;-79
2021/06/25 06:37:05;;;;;;;6.83;3.67;;;;;;;20.38;92.67;98803.77;4183256;83;21028;-77
2021/06/25 06:43:07;;;;;;;10.20;3.50;;;;;;;20.48;92.34;98818.75;4186739;83;21309;-78
2021/06/25 06:49:08;;;;;;;7.40;3.17;;;;;;;20.45;92.09;98837.71;4187569;83;21040;-80
2021/06/25 06:55:15;;;;;;;6.28;3.33;;;;;;;20.46;91.51;98841.25;4181425;83;21111;-79
2021/06/25 07:01:21;;;;;;;5.92;3.20;;;;;;;20.49;91.54;98843.92;4186189;83;21066;-81
2021/06/25 07:07:26;;;;;;;7.13;3.03;;;;;;;20.55;91.08;98844.92;4181562;83;21643;-80
2021/06/25 07:13:28;;;;;;;8.75;3.00;;;;;;;20.71;91.01;98862.89;4179932;83;21690;-79
2021/06/25 07:19:29;;;;;;;6.72;3.00;;;;;;;20.88;90.69;98857.37;4169323;82;21003;-80
2021/06/25 07:25:32;;;;;;;8.10;2.65;;;;;;;21.02;90.13;98854.76;4174026;82;21022;-80
2021/06/25 07:31:34;;;;;;;8.43;3.35;;;;;;;21.36;89.27;98868.10;4173420;84;21500;-80
2021/06/25 07:37:38;;;;;;;6.72;2.70;;;;;;;21.65;89.08;98853.97;4164672;84;20996;-81
2021/06/25 07:43:39;;;;;;;6.20;3.05;;;;;;;21.81;88.00;98861.40;4118999;84;21197;-80
2021/06/25 07:49:52;;;;;;;6.37;3.17;;;;;;;21.74;87.61;98853.44;4172284;84;21022;-81
2021/06/25 07:55:56;;;;;;;7.30;2.92;;;;;;;21.74;87.52;98859.61;4156775;84;21058;-80
2021/06/25 08:02:00;;;;;;;7.03;3.42;;;;;;;21.65;86.85;98864.52;4155547;84;21103;-81
2021/06/25 08:08:05;;;;;;;5.58;2.80;;;;;;;21.56;86.74;98872.77;4159815;84;21089;-83
2021/06/25 08:14:07;;;;;;;6.37;2.80;;;;;;;21.56;86.50;98872.77;4193130;83;20999;-81
2021/06/25 08:20:12;;;;;;;6.67;2.70;;;;;;;21.43;86.16;98879.62;4129480;84;21823;-81
2021/06/25 08:26:14;;;;;;;4.50;2.62;;;;;;;21.44;85.93;98876.38;4129492;84;21073;-81
2021/06/25 08:32:25;;;;;;;6.78;2.90;;;;;;;21.46;85.56;98885.07;4128653;85;21009;-82
2021/06/25 08:38:29;;;;;;;8.78;3.30;;;;;;;21.38;85.56;98882.36;4199341;83;21066;-78
2021/06/25 08:44:41;;;;;;;6.50;3.30;;;;;;;21.37;85.30;98889.17;4115684;84;21589;-80
2021/06/25 08:50:52;;;;;;;4.55;2.80;;;;;;;21.40;85.29;98898.02;4176936;83;21709;-80
2021/06/25 08:56:57;;;;;;;4.28;2.30;;;;;;;21.37;85.63;98903.70;4152476;84;21455;-81
2021/06/25 09:02:59;;;;;;;6.05;2.83;;;;;;;21.37;85.09;98894.73;4158621;84;21058;-80
2021/06/25 09:09:16;;;;;;;7.97;2.83;;;;;;;21.34;84.52;98901.20;4174589;83;21074;-80
2021/06/25 09:15:18;;;;;;;;;;;;;;;21.19;84.95;98895.17;4178510;83;21037;-79
2021/06/25 09:28:07;;;;;;;6.15;3.10;;;;;;;21.46;85.17;98891.25;4168759;83;20979;-81
2021/06/25 09:34:16;;;;;;;6.80;2.90;;;;;;;21.64;84.26;98877.50;4128692;83;21113;-81
2021/06/25 09:40:18;;;;;;;5.22;3.00;;;;;;;21.84;83.77;98878.00;4172620;83;21052;-81
2021/06/25 09:46:36;;;;;;;4.97;2.27;;;;;;;21.82;83.33;98892.98;4178608;83;21018;-81
2021/06/25 09:53:00;;;;;;;5.53;2.80;;;;;;;21.82;83.48;98892.20;4172785;83;21057;-81
2021/06/25 10:05:32;;;;;;;6.30;2.98;;;;;;;21.77;82.16;98919.27;4176216;83;21013;-81
2021/06/25 10:11:36;;;;;;;4.42;2.75;;;;;;;21.74;81.88;98904.97;4195599;83;21570;-81
2021/06/25 10:17:41;;;;;;;5.62;3.10;;;;;;;21.73;82.12;98909.00;4206940;83;21470;-82
2021/06/25 10:23:54;;;;;;;5.12;3.45;;;;;;;21.61;82.16;98921.58;4155240;84;21007;-81
2021/06/25 10:29:59;;;;;;;6.72;3.00;;;;;;;21.59;82.09;98926.20;4203326;83;20982;-82
2021/06/25 10:36:06;;;;;;;5.83;3.47;;;;;;;21.61;82.23;98928.54;4201571;83;21037;-82
2021/06/25 10:42:10;;;;;;;6.33;3.40;;;;;;;21.53;82.18;98943.94;4203570;83;21025;-81
2021/06/25 10:48:13;;;;;;;7.47;3.90;;;;;;;21.54;82.49;98942.09;4150753;84;21029;-81
2021/06/25 10:54:30;;;;;;;8.05;4.08;;;;;;;21.64;82.39;98944.35;4128504;85;21495;-81
2021/06/25 11:00:43;;;;;;;;;;;;;;;21.65;82.21;98954.25;4157567;84;20986;-81
2021/06/25 11:06:52;;;;;;;11.65;3.80;;;;;;;21.55;82.20;98970.70;4197810;83;20212;-82
2021/06/25 11:13:36;;;;;;;;;;;;;;;;;;;;;
2021/06/25 11:19:41;;;;;;;15.60;11.80;;;;;;;21.21;82.96;98967.25;3906217;89;21081;-81
2021/06/25 11:25:57;;;;;;;18.65;13.95;;;;;;;21.08;83.43;98976.84;4044967;86;21094;-81
2021/06/25 11:32:10;;;;;;;20.10;14.15;;;;;;;20.97;83.77;98998.66;4034231;86;21432;-81
2021/06/25 11:38:13;;;;;;;22.95;15.30;;;;;;;20.91;84.10;99010.91;3971638;87;21073;-80
2021/06/25 11:44:28;;;;;;;22.22;15.48;;;;;;;20.83;84.42;99006.02;4042030;83;21541;-79
2021/06/25 11:50:30;;;;;;;20.17;15.95;;;;;;;20.78;84.89;99006.55;4180243;83;21088;-78
2021/06/25 11:56:31;;;;;;;26.15;18.77;;;;;;;20.62;85.17;99017.75;4199865;83;21538;-77
2021/06/25 12:02:45;;;;;;;31.20;22.50;;;;;;;20.55;85.68;99023.53;4131318;84;21070;-77
2021/06/25 12:09:01;;;;;;;34.38;21.57;;;;;;;20.37;85.89;99024.02;4132663;84;21035;-76
2021/06/25 12:15:08;;;;;;;22.32;18.80;;;;;;;20.22;86.77;99017.27;4140727;84;21089;-77
2021/06/25 12:21:14;;;;;;;20.90;17.12;;;;;;;20.19;87.14;99018.16;4181394;84;21045;-77
2021/06/25 12:27:16;;;;;;;27.00;19.17;;;;;;;20.17;87.36;99008.86;4204526;83;21076;-77
2021/06/25 12:33:30;;;;;;;25.23;18.50;;;;;;;20.22;87.77;98997.81;4190317;83;21065;-77
2021/06/25 12:39:33;;;;;;;29.40;20.97;;;;;;;20.29;88.10;98995.45;4197136;83;21049;-77
2021/06/25 12:45:48;;;;;;;29.10;19.95;;;;;;;20.32;88.51;98999.53;4176062;84;21024;-77
2021/06/25 12:51:51;;;;;;;29.27;22.58;;;;;;;20.50;89.00;98998.41;4175364;84;21085;-77
2021/06/25 12:57:52;;;;;;;31.05;23.15;;;;;;;20.71;89.45;98991.45;4201276;83;21578;-78
2021/06/25 13:03:54;;;;;;;31.85;24.25;;;;;;;21.00;89.72;98986.63;4175171;84;21020;-78
2021/06/25 13:09:57;;;;;;;30.48;22.60;;;;;;;21.14;89.80;98989.73;4200827;83;21002;-77
2021/06/25 13:16:02;;;;;;;27.32;22.15;;;;;;;21.25;89.77;99003.34;4194114;83;21121;-78
2021/06/25 13:22:15;;;;;;;25.90;21.15;;;;;;;21.27;89.72;99014.19;4169588;83;21556;-77
2021/06/25 13:28:16;;;;;;;28.87;21.95;;;;;;;21.23;89.56;99008.56;4152055;84;21089;-78
2021/06/25 13:34:19;;;;;;;33.85;22.55;;;;;;;21.14;89.54;99017.56;4156259;83;21037;-78
2021/06/25 13:40:26;;;;;;;28.17;21.15;;;;;;;21.03;89.71;99017.74;4147736;84;21114;-77
2021/06/25 13:46:29;;;;;;;26.52;21.02;;;;;;;20.89;89.59;99021.69;4150329;84;21002;-78
2021/06/25 13:52:31;;;;;;;23.47;20.20;;;;;;;20.81;89.71;99020.97;4149373;83;21082;-78
2021/06/25 13:59:02;;;;;;;25.57;21.17;;;;;;;20.82;89.92;99021.91;4200041;83;21585;-78
2021/06/25 14:05:10;;;;;;;28.05;19.85;;;;;;;20.89;89.99;99030.03;4163538;83;21032;-78
2021/06/25 14:11:31;;;;;;;25.00;19.80;;;;;;;20.94;89.90;99031.52;4195508;83;20987;-78
2021/06/25 14:17:36;;;;;;;21.82;16.80;;;;;;;20.97;89.92;99030.66;4154860;83;21031;-78
2021/06/25 14:23:37;;;;;;;25.75;18.50;;;;;;;20.95;89.79;99025.50;4175012;83;21096;-78
2021/06/25 14:29:39;;;;;;;22.70;19.00;;;;;;;20.90;89.51;99025.26;4174496;83;21660;-78
2021/06/25 14:35:40;;;;;;;36.63;22.98;;;;;;;20.75;89.67;99021.34;4177501;83;21034;-79
2021/06/25 14:41:41;;;;;;;27.22;21.50;;;;;;;20.60;89.70;99019.58;4189533;83;21041;-78
2021/06/25 14:47:42;;;;;;;35.03;25.20;;;;;;;20.55;90.00;99010.38;4179062;83;21033;-78
2021/06/25 14:53:47;;;;;;;36.65;25.37;;;;;;;20.56;90.01;99007.00;4200479;83;21030;-79
2021/06/25 14:59:49;;;;;;;34.70;25.52;;;;;;;20.56;90.38;98999.45;4135784;83;21054;-79
2021/06/25 15:05:51;;;;;;;34.60;25.95;;;;;;;20.70;90.48;99007.98;4124233;85;21098;-80
2021/06/25 15:11:52;;;;;;;28.05;22.67;;;;;;;20.77;90.40;99009.94;4133812;84;21053;-79
2021/06/25 15:17:53;;;;;;;34.18;23.55;;;;;;;20.85;90.54;99000.76;4165402;84;21054;-79
2021/06/25 15:23:55;;;;;;;33.60;24.23;;;;;;;20.91;90.51;99009.52;4162680;84;21037;-79
2021/06/25 15:29:56;;;;;;;33.55;24.35;;;;;;;20.96;90.56;99009.00;4166850;84;21995;-79
2021/06/25 15:36:00;;;;;;;33.20;25.68;;;;;;;21.00;90.44;99006.11;4168488;84;21648;-80
2021/06/25 15:42:02;;;;;;;32.25;23.32;;;;;;;21.08;90.52;99014.41;4167639;84;22212;-79
2021/06/25 15:48:04;;;;;;;31.35;23.75;;;;;;;21.10;90.36;99014.12;4167191;84;21017;-79
2021/06/25 15:54:06;;;;;;;31.35;25.80;;;;;;;21.11;90.36;99017.06;4169647;84;20973;-79
2021/06/25 16:00:08;;;;;;;39.15;25.80;;;;;;;21.03;90.12;99012.18;4170039;83;21480;-83
2021/06/25 16:06:11;;;;;;;33.92;27.58;;;;;;;20.91;89.95;99015.08;4148041;84;21023;-79
2021/06/25 16:12:12;;;;;;;32.58;24.32;;;;;;;20.85;89.92;99000.16;4178176;82;21047;-80
2021/06/25 16:18:15;;;;;;;35.40;27.20;;;;;;;20.87;89.91;99001.89;4169487;84;21045;-80
2021/06/25 16:24:18;;;;;;;34.48;24.63;;;;;;;20.93;89.78;98997.33;4169353;84;21548;-79
2021/06/25 16:30:21;;;;;;;33.70;23.95;;;;;;;20.90;89.88;98998.83;4174254;84;21579;-80
2021/06/25 16:36:22;;;;;;;27.58;23.73;;;;;;;20.88;89.88;98983.97;4168745;84;21031;-81
2021/06/25 16:42:23;;;;;;;29.45;22.98;;;;;;;20.93;89.81;98997.33;4170924;84;21571;-80
2021/06/25 16:48:25;;;;;;;31.68;24.25;;;;;;;21.10;89.69;98998.82;4162673;84;21531;-80
2021/06/25 16:54:27;;;;;;;28.20;22.48;;;;;;;21.17;89.24;99002.00;4162138;84;21039;-80
2021/06/25 17:00:28;;;;;;;21.65;19.02;;;;;;;21.20;88.89;99003.28;4161565;84;21093;-80
2021/06/25 17:06:30;;;;;;;27.27;19.07;;;;;;;21.16;88.64;98998.42;4161776;84;21019;-80
2021/06/25 17:12:33;;;;;;;20.17;17.48;;;;;;;21.10;88.75;99001.60;4180909;83;21088;-80
2021/06/25 17:18:34;;;;;;;20.92;16.37;;;;;;;21.00;88.81;99018.00;4210436;83;20998;-79
2021/06/25 17:24:40;;;;;;;21.87;16.50;;;;;;;21.03;88.45;99021.29;4207686;83;21024;-80
2021/06/25 17:30:41;;;;;;;20.17;15.68;;;;;;;21.03;88.18;99033.81;4210018;83;21543;-81
2021/06/25 17:36:43;;;;;;;20.55;15.28;;;;;;;20.88;87.55;99031.87;4206204;83;20982;-81
2021/06/25 17:42:45;;;;;;;17.87;14.23;;;;;;;20.78;87.77;99037.91;4209593;83;21468;-80
2021/06/25 17:48:46;;;;;;;24.15;15.43;;;;;;;20.75;87.83;99053.34;4202186;83;20982;-81
2021/06/25 17:54:47;;;;;;;23.32;17.02;;;;;;;20.76;87.60;99061.24;4206903;83;21034;-80
2021/06/25 18:00:57;;;;;;;18.57;14.80;;;;;;;20.64;88.05;99069.55;4207310;83;20990;-81
2021/06/25 18:06:56;;;;;;;17.17;13.95;;;;;;;20.68;88.18;99053.53;4085257;83;9999946;-81
2021/06/25 18:12:58;;;;;;;19.07;14.75;;;;;;;20.63;88.06;99034.59;4165460;83;21037;-80
2021/06/25 18:19:00;;;;;;;24.77;15.80;;;;;;;20.61;87.80;99026.69;4138492;85;21043;-80
2021/06/25 18:25:01;;;;;;;19.82;16.27;;;;;;;20.62;88.03;99019.93;4181431;83;21557;-81
2021/06/25 18:31:03;;;;;;;23.95;14.47;;;;;;;20.64;87.97;99036.17;4184550;83;21026;-80
2021/06/25 18:37:05;;;;;;;26.55;19.98;;;;;;;20.54;87.94;99042.80;4144541;84;21010;-82
2021/06/25 18:43:07;;;;;;;35.30;23.07;;;;;;;20.50;87.86;99049.84;4133961;85;21037;-81
2021/06/25 18:49:08;;;;;;;29.32;18.87;;;;;;;20.45;87.84;99042.07;4173410;83;22069;-81
2021/06/25 18:55:11;;;;;;;28.42;21.00;;;;;;;20.44;87.83;99027.22;4129890;85;20978;-82
2021/06/25 19:01:13;;;;;;;31.68;21.95;;;;;;;20.45;87.73;99044.84;4127863;85;21117;-80
2021/06/25 19:07:15;;;;;;;30.27;21.50;;;;;;;20.35;87.59;99040.95;4152667;84;21120;-81
2021/06/25 19:13:17;;;;;;;28.32;19.92;;;;;;;20.17;87.71;99055.35;4171841;83;21052;-82
2021/06/25 19:19:19;;;;;;;29.07;21.42;;;;;;;20.10;87.97;99047.16;4170141;82;21109;-82
2021/06/25 19:25:20;;;;;;;27.32;19.00;;;;;;;20.05;88.18;99064.34;4168687;83;21024;-81
2021/06/25 19:31:21;;;;;;;30.90;19.90;;;;;;;19.98;88.42;99064.55;4172328;83;21026;-82
2021/06/25 19:37:23;;;;;;;28.12;19.37;;;;;;;19.89;88.56;99054.64;4059744;82;10000519;-81
2021/06/25 19:43:24;;;;;;;32.23;20.97;;;;;;;19.83;88.72;99057.77;4173997;83;21020;-81
2021/06/25 19:49:25;;;;;;;29.40;20.75;;;;;;;19.80;88.78;99049.71;4190298;83;21101;-81
2021/06/25 19:55:47;;;;;;;25.45;20.45;;;;;;;19.81;88.79;99047.72;4177603;83;21113;-81
2021/06/25 20:01:45;;;;;;;25.70;20.80;;;;;;;19.71;88.77;99054.31;4185962;83;20958;-81
2021/06/25 20:08:00;;;;;;;25.55;19.90;;;;;;;19.51;89.12;99048.06;4164301;83;21022;-81
2021/06/25 20:14:04;;;;;;;28.70;20.72;;;;;;;19.42;89.53;99063.92;4171756;83;21052;-81
2021/06/25 20:20:07;;;;;;;27.85;19.20;;;;;;;19.35;89.74;99077.98;4173381;83;21076;-81
2021/06/25 20:26:19;;;;;;;27.20;20.68;;;;;;;19.35;90.05;99078.58;4170680;83;21003;-81
2021/06/25 20:32:37;;;;;;;27.02;19.90;;;;;;;19.44;89.93;99053.77;4176168;83;21595;-81
2021/06/25 20:38:43;;;;;;;34.60;23.45;;;;;;;19.53;90.20;99045.64;4166701;83;21550;-81
2021/06/25 20:44:49;;;;;;;39.60;23.22;;;;;;;19.60;89.95;99035.73;4118244;85;21099;-81
2021/06/25 20:50:59;;;;;;;33.35;24.50;;;;;;;19.57;89.82;99036.02;4179273;83;21961;-81
2021/06/25 20:57:08;;;;;;;34.92;24.65;;;;;;;19.35;89.93;99043.88;4193957;83;21124;-81
2021/06/25 21:03:09;;;;;;;37.23;26.75;;;;;;;19.14;90.11;99036.79;4176834;83;21070;-81
2021/06/25 21:09:11;;;;;;;35.75;26.48;;;;;;;18.99;90.07;99041.09;4197418;83;21355;-81
2021/06/25 21:15:14;;;;;;;39.85;24.20;;;;;;;18.84;90.41;99082.05;4176966;82;21066;-81
2021/06/25 21:21:26;;;;;;;37.10;24.85;;;;;;;18.79;90.40;99070.06;4191725;83;21049;-82
2021/06/25 21:27:34;;;;;;;38.67;26.62;;;;;;;18.85;90.69;99056.66;4161737;84;21501;-81
2021/06/25 21:33:53;;;;;;;42.50;26.33;;;;;;;18.74;90.54;99067.95;4164295;84;21062;-81
2021/06/25 21:40:03;;;;;;;32.45;24.05;;;;;;;18.78;90.86;99084.53;4207730;82;21013;-82
2021/06/25 21:46:03;;;;;;;31.12;24.20;;;;;;;18.82;91.08;99069.20;4176435;84;21653;-82
2021/06/25 21:52:09;;;;;;;28.57;21.10;;;;;;;18.85;90.99;99089.95;4207026;83;21085;-81
2021/06/25 21:58:35;;;;;;;43.65;23.10;;;;;;;18.90;91.19;99099.75;4179586;82;21062;-82
2021/06/25 22:04:44;;;;;;;27.42;20.15;;;;;;;18.94;91.22;99103.22;4194586;83;20970;-81
2021/06/25 22:10:49;;;;;;;34.60;24.47;;;;;;;18.98;91.19;99099.78;4191585;83;21049;-81
2021/06/25 22:17:11;;;;;;;33.58;25.57;;;;;;;18.97;91.32;99094.83;4178780;83;21105;-81
2021/06/25 22:23:16;;;;;;;36.05;23.40;;;;;;;18.88;90.93;99100.77;4180677;83;21538;-81
2021/06/25 22:29:18;;;;;;;31.17;24.57;;;;;;;18.79;91.46;99094.43;4180152;83;21028;-82
2021/06/25 22:35:23;;;;;;;41.00;26.62;;;;;;;18.88;91.56;99081.36;4178947;83;21120;-81
2021/06/25 22:41:31;;;;;;;33.70;22.30;;;;;;;18.73;91.44;99091.19;4179110;83;21497;-81
2021/06/25 22:47:56;;;;;;;30.15;24.05;;;;;;;18.71;91.73;99078.52;4156541;83;21769;-83
2021/06/25 22:54:03;;;;;;;33.25;22.30;;;;;;;18.73;91.71;99068.38;4177741;83;21025;-81
2021/06/25 23:00:10;;;;;;;31.07;24.18;;;;;;;18.66;92.08;99071.31;4160059;83;21030;-81
2021/06/25 23:06:11;;;;;;;31.97;23.67;;;;;;;18.79;92.30;99056.20;4178253;83;21092;-82
2021/06/25 23:12:12;;;;;;;26.33;20.75;;;;;;;18.78;92.24;99065.73;4172568;83;21045;-82
2021/06/25 23:18:14;;;;;;;31.97;24.47;;;;;;;18.78;92.41;99068.52;4132075;84;21118;-81
2021/06/25 23:24:15;;;;;;;32.03;21.62;;;;;;;18.85;92.39;99072.52;4137292;83;21017;-81
2021/06/25 23:30:20;;;;;;;36.28;21.77;;;;;;;18.81;92.48;99077.36;4136759;84;21099;-81
2021/06/25 23:36:22;;;;;;;32.85;23.07;;;;;;;18.86;92.35;99077.63;4140572;84;21038;-81
2021/06/25 23:42:27;;;;;;;34.83;25.10;;;;;;;18.91;92.44;99080.50;4134426;83;21015;-81
2021/06/25 23:48:44;;;;;;;31.97;23.80;;;;;;;18.80;92.34;99093.80;4140542;84;21076;-82
2021/06/25 23:54:54;;;;;;;36.77;26.45;;;;;;;18.75;92.44;99096.48;4137530;84;21028;-81
